sensor_id;sensor_type;location;lat;lon;timestamp;P1;durP1;ratioP1;P2;durP2;ratioP2
9526;SDS011;4802;51.494;6.770;2023-04-03T00:01:48;3.97;;;3.17;;
9526;SDS011;4802;51.494;6.770;2023-04-03T00:04:18;8.67;;;4.77;;
9526;SDS011;4802;51.494;6.770;2023-04-03T00:06:47;2.90;;;2.80;;
9526;SDS011;4802;51.494;6.770;2023-04-03T00:09:22;3.07;;;2.80;;
9526;SDS011;4802;51.494;6.770;2023-04-03T00:11:51;3.17;;;3.00;;
9526;SDS011;4802;51.494;6.770;2023-04-03T00:14:20;3.13;;;2.93;;
9526;SDS011;4802;51.494;6.770;2023-04-03T00:16:50;6.53;;;4.80;;
9526;SDS011;4802;51.494;6.770;2023-04-03T00:19:20;3.63;;;3.00;;
9526;SDS011;4802;51.494;6.770;2023-04-03T00:21:49;4.80;;;3.23;;
9526;SDS011;4802;51.494;6.770;2023-04-03T00:24:21;3.87;;;3.73;;
9526;SDS011;4802;51.494;6.770;2023-04-03T00:26:51;3.00;;;2.53;;
9526;SDS011;4802;51.494;6.770;2023-04-03T00:29:22;3.67;;;3.47;;
9526;SDS011;4802;51.494;6.770;2023-04-03T00:31:51;11.83;;;3.70;;
9526;SDS011;4802;51.494;6.770;2023-04-03T00:34:20;4.10;;;3.80;;
9526;SDS011;4802;51.494;6.770;2023-04-03T00:36:50;6.47;;;4.37;;
9526;SDS011;4802;51.494;6.770;2023-04-03T00:45:36;6.67;;;6.00;;
9526;SDS011;4802;51.494;6.770;2023-04-03T00:48:07;3.70;;;3.47;;
9526;SDS011;4802;51.494;6.770;2023-04-03T00:50:37;3.10;;;3.00;;
9526;SDS011;4802;51.494;6.770;2023-04-03T00:53:08;5.20;;;4.27;;
9526;SDS011;4802;51.494;6.770;2023-04-03T00:55:39;3.00;;;2.70;;
9526;SDS011;4802;51.494;6.770;2023-04-03T00:58:10;5.67;;;5.23;;
9526;SDS011;4802;51.494;6.770;2023-04-03T01:00:43;2.70;;;2.50;;
9526;SDS011;4802;51.494;6.770;2023-04-03T01:03:15;4.63;;;3.50;;
9526;SDS011;4802;51.494;6.770;2023-04-03T01:05:47;2.40;;;1.60;;
9526;SDS011;4802;51.494;6.770;2023-04-03T01:08:17;4.90;;;4.50;;
9526;SDS011;4802;51.494;6.770;2023-04-03T01:10:46;11.80;;;5.10;;
9526;SDS011;4802;51.494;6.770;2023-04-03T01:13:20;6.40;;;3.23;;
9526;SDS011;4802;51.494;6.770;2023-04-03T01:15:54;2.13;;;2.03;;
9526;SDS011;4802;51.494;6.770;2023-04-03T01:18:26;2.60;;;2.23;;
9526;SDS011;4802;51.494;6.770;2023-04-03T01:21:07;3.63;;;3.30;;
9526;SDS011;4802;51.494;6.770;2023-04-03T01:23:52;2.70;;;2.57;;
9526;SDS011;4802;51.494;6.770;2023-04-03T01:26:23;2.83;;;2.63;;
9526;SDS011;4802;51.494;6.770;2023-04-03T01:28:54;2.20;;;2.10;;
9526;SDS011;4802;51.494;6.770;2023-04-03T01:31:27;2.33;;;2.23;;
9526;SDS011;4802;51.494;6.770;2023-04-03T01:34:04;3.73;;;3.53;;
9526;SDS011;4802;51.494;6.770;2023-04-03T01:36:34;3.43;;;3.33;;
9526;SDS011;4802;51.494;6.770;2023-04-03T01:39:03;6.63;;;2.43;;
9526;SDS011;4802;51.494;6.770;2023-04-03T01:41:33;1.70;;;1.60;;
9526;SDS011;4802;51.494;6.770;2023-04-03T01:44:03;2.00;;;2.00;;
9526;SDS011;4802;51.494;6.770;2023-04-03T01:46:34;2.17;;;2.17;;
9526;SDS011;4802;51.494;6.770;2023-04-03T01:49:06;2.40;;;2.30;;
9526;SDS011;4802;51.494;6.770;2023-04-03T01:51:35;11.13;;;3.87;;
9526;SDS011;4802;51.494;6.770;2023-04-03T01:54:04;2.07;;;1.97;;
9526;SDS011;4802;51.494;6.770;2023-04-03T01:56:32;1.70;;;1.67;;
9526;SDS011;4802;51.494;6.770;2023-04-03T01:59:03;10.13;;;2.33;;
9526;SDS011;4802;51.494;6.770;2023-04-03T02:01:33;1.57;;;1.50;;
9526;SDS011;4802;51.494;6.770;2023-04-03T02:04:03;2.60;;;2.47;;
9526;SDS011;4802;51.494;6.770;2023-04-03T02:06:36;2.30;;;2.20;;
9526;SDS011;4802;51.494;6.770;2023-04-03T02:09:09;1.60;;;1.50;;
9526;SDS011;4802;51.494;6.770;2023-04-03T02:11:38;1.50;;;1.50;;
9526;SDS011;4802;51.494;6.770;2023-04-03T02:14:08;1.80;;;1.73;;
9526;SDS011;4802;51.494;6.770;2023-04-03T02:16:38;1.70;;;1.70;;
9526;SDS011;4802;51.494;6.770;2023-04-03T02:19:10;1.80;;;1.70;;
9526;SDS011;4802;51.494;6.770;2023-04-03T02:21:44;2.07;;;1.97;;
9526;SDS011;4802;51.494;6.770;2023-04-03T02:24:14;1.20;;;1.20;;
9526;SDS011;4802;51.494;6.770;2023-04-03T02:26:44;1.40;;;1.40;;
9526;SDS011;4802;51.494;6.770;2023-04-03T02:29:17;3.17;;;1.90;;
9526;SDS011;4802;51.494;6.770;2023-04-03T02:31:50;1.60;;;1.60;;
9526;SDS011;4802;51.494;6.770;2023-04-03T02:34:20;1.40;;;1.40;;
9526;SDS011;4802;51.494;6.770;2023-04-03T02:36:54;1.50;;;1.50;;
9526;SDS011;4802;51.494;6.770;2023-04-03T02:39:24;1.27;;;1.27;;
9526;SDS011;4802;51.494;6.770;2023-04-03T02:41:54;1.10;;;1.10;;
9526;SDS011;4802;51.494;6.770;2023-04-03T02:44:24;2.80;;;1.53;;
9526;SDS011;4802;51.494;6.770;2023-04-03T02:46:55;4.50;;;2.23;;
9526;SDS011;4802;51.494;6.770;2023-04-03T02:49:25;1.30;;;1.30;;
9526;SDS011;4802;51.494;6.770;2023-04-03T02:51:56;2.10;;;2.00;;
9526;SDS011;4802;51.494;6.770;2023-04-03T02:54:27;1.53;;;1.53;;
9526;SDS011;4802;51.494;6.770;2023-04-03T02:56:58;2.17;;;2.10;;
9526;SDS011;4802;51.494;6.770;2023-04-03T02:59:27;4.53;;;2.93;;
9526;SDS011;4802;51.494;6.770;2023-04-03T03:01:56;1.40;;;1.40;;
9526;SDS011;4802;51.494;6.770;2023-04-03T03:04:27;9.50;;;3.23;;
9526;SDS011;4802;51.494;6.770;2023-04-03T03:07:01;2.60;;;2.50;;
9526;SDS011;4802;51.494;6.770;2023-04-03T03:09:32;1.17;;;1.17;;
9526;SDS011;4802;51.494;6.770;2023-04-03T03:12:03;3.70;;;2.33;;
9526;SDS011;4802;51.494;6.770;2023-04-03T03:14:33;5.50;;;1.27;;
9526;SDS011;4802;51.494;6.770;2023-04-03T03:17:03;1.63;;;1.53;;
9526;SDS011;4802;51.494;6.770;2023-04-03T03:19:34;1.87;;;1.83;;
9526;SDS011;4802;51.494;6.770;2023-04-03T03:22:09;2.20;;;1.50;;
9526;SDS011;4802;51.494;6.770;2023-04-03T03:24:39;1.43;;;1.43;;
9526;SDS011;4802;51.494;6.770;2023-04-03T03:27:10;2.33;;;2.23;;
9526;SDS011;4802;51.494;6.770;2023-04-03T03:29:42;2.93;;;2.00;;
9526;SDS011;4802;51.494;6.770;2023-04-03T03:32:14;1.10;;;1.10;;
9526;SDS011;4802;51.494;6.770;2023-04-03T03:34:44;3.10;;;2.90;;
9526;SDS011;4802;51.494;6.770;2023-04-03T03:37:15;8.43;;;1.90;;
9526;SDS011;4802;51.494;6.770;2023-04-03T03:39:44;2.07;;;1.87;;
9526;SDS011;4802;51.494;6.770;2023-04-03T03:42:20;2.00;;;1.90;;
9526;SDS011;4802;51.494;6.770;2023-04-03T03:44:52;2.90;;;2.70;;
9526;SDS011;4802;51.494;6.770;2023-04-03T03:47:21;8.77;;;1.90;;
9526;SDS011;4802;51.494;6.770;2023-04-03T03:49:53;3.07;;;2.80;;
9526;SDS011;4802;51.494;6.770;2023-04-03T03:52:28;1.63;;;1.63;;
9526;SDS011;4802;51.494;6.770;2023-04-03T03:54:59;2.00;;;1.80;;
9526;SDS011;4802;51.494;6.770;2023-04-03T03:57:30;2.20;;;1.63;;
9526;SDS011;4802;51.494;6.770;2023-04-03T03:59:59;1.63;;;1.60;;
9526;SDS011;4802;51.494;6.770;2023-04-03T04:02:33;2.23;;;2.13;;
9526;SDS011;4802;51.494;6.770;2023-04-03T04:05:03;3.50;;;3.20;;
9526;SDS011;4802;51.494;6.770;2023-04-03T04:07:38;9.93;;;2.27;;
9526;SDS011;4802;51.494;6.770;2023-04-03T04:10:07;1.10;;;1.10;;
9526;SDS011;4802;51.494;6.770;2023-04-03T04:12:42;1.17;;;1.17;;
9526;SDS011;4802;51.494;6.770;2023-04-03T04:15:13;1.77;;;1.70;;
9526;SDS011;4802;51.494;6.770;2023-04-03T04:17:42;6.17;;;1.87;;
9526;SDS011;4802;51.494;6.770;2023-04-03T04:20:25;1.77;;;1.67;;
9526;SDS011;4802;51.494;6.770;2023-04-03T04:23:03;3.90;;;3.10;;
9526;SDS011;4802;51.494;6.770;2023-04-03T04:25:36;1.93;;;1.63;;
9526;SDS011;4802;51.494;6.770;2023-04-03T04:28:08;1.53;;;1.47;;
9526;SDS011;4802;51.494;6.770;2023-04-03T04:30:41;6.00;;;2.27;;
9526;SDS011;4802;51.494;6.770;2023-04-03T04:33:25;2.10;;;1.93;;
9526;SDS011;4802;51.494;6.770;2023-04-03T04:35:54;2.00;;;1.60;;
9526;SDS011;4802;51.494;6.770;2023-04-03T04:38:27;8.13;;;3.20;;
9526;SDS011;4802;51.494;6.770;2023-04-03T04:41:01;1.23;;;1.23;;
9526;SDS011;4802;51.494;6.770;2023-04-03T04:43:45;4.00;;;1.73;;
9526;SDS011;4802;51.494;6.770;2023-04-03T04:46:20;1.70;;;1.60;;
9526;SDS011;4802;51.494;6.770;2023-04-03T04:48:52;1.43;;;1.33;;
9526;SDS011;4802;51.494;6.770;2023-04-03T04:51:23;1.33;;;1.33;;
9526;SDS011;4802;51.494;6.770;2023-04-03T04:54:05;1.10;;;1.10;;
9526;SDS011;4802;51.494;6.770;2023-04-03T04:56:49;13.03;;;2.17;;
9526;SDS011;4802;51.494;6.770;2023-04-03T04:59:32;1.43;;;1.43;;
9526;SDS011;4802;51.494;6.770;2023-04-03T05:02:03;4.20;;;2.60;;
9526;SDS011;4802;51.494;6.770;2023-04-03T05:04:33;6.63;;;2.30;;
9526;SDS011;4802;51.494;6.770;2023-04-03T05:07:07;2.23;;;1.87;;
9526;SDS011;4802;51.494;6.770;2023-04-03T05:09:40;9.23;;;1.67;;
9526;SDS011;4802;51.494;6.770;2023-04-03T05:12:12;1.60;;;1.60;;
9526;SDS011;4802;51.494;6.770;2023-04-03T05:14:44;2.70;;;2.40;;
9526;SDS011;4802;51.494;6.770;2023-04-03T05:17:27;1.10;;;1.10;;
9526;SDS011;4802;51.494;6.770;2023-04-03T05:20:11;1.87;;;1.50;;
9526;SDS011;4802;51.494;6.770;2023-04-03T05:22:49;2.20;;;1.67;;
9526;SDS011;4802;51.494;6.770;2023-04-03T05:25:37;2.17;;;1.53;;
9526;SDS011;4802;51.494;6.770;2023-04-03T05:28:13;7.20;;;1.67;;
9526;SDS011;4802;51.494;6.770;2023-04-03T05:30:43;1.40;;;1.40;;
9526;SDS011;4802;51.494;6.770;2023-04-03T05:33:13;1.80;;;1.80;;
9526;SDS011;4802;51.494;6.770;2023-04-03T05:35:53;4.43;;;1.90;;
9526;SDS011;4802;51.494;6.770;2023-04-03T05:38:25;2.30;;;2.13;;
9526;SDS011;4802;51.494;6.770;2023-04-03T05:40:57;2.20;;;2.00;;
9526;SDS011;4802;51.494;6.770;2023-04-03T05:43:27;4.77;;;2.97;;
9526;SDS011;4802;51.494;6.770;2023-04-03T05:45:56;4.70;;;1.90;;
9526;SDS011;4802;51.494;6.770;2023-04-03T05:48:25;0.73;;;0.73;;
9526;SDS011;4802;51.494;6.770;2023-04-03T05:50:55;4.40;;;2.47;;
9526;SDS011;4802;51.494;6.770;2023-04-03T05:53:26;3.67;;;2.70;;
9526;SDS011;4802;51.494;6.770;2023-04-03T05:56:01;0.60;;;0.60;;
9526;SDS011;4802;51.494;6.770;2023-04-03T05:58:33;0.97;;;0.97;;
9526;SDS011;4802;51.494;6.770;2023-04-03T06:01:03;4.30;;;1.33;;
9526;SDS011;4802;51.494;6.770;2023-04-03T06:03:32;0.97;;;0.97;;
9526;SDS011;4802;51.494;6.770;2023-04-03T06:06:05;1.53;;;1.53;;
9526;SDS011;4802;51.494;6.770;2023-04-03T06:08:38;1.67;;;1.17;;
9526;SDS011;4802;51.494;6.770;2023-04-03T06:11:10;0.80;;;0.80;;
9526;SDS011;4802;51.494;6.770;2023-04-03T06:13:41;0.80;;;0.80;;
9526;SDS011;4802;51.494;6.770;2023-04-03T06:16:29;2.80;;;1.57;;
9526;SDS011;4802;51.494;6.770;2023-04-03T06:19:05;5.20;;;1.97;;
9526;SDS011;4802;51.494;6.770;2023-04-03T06:21:36;3.57;;;2.60;;
9526;SDS011;4802;51.494;6.770;2023-04-03T06:24:10;3.50;;;1.60;;
9526;SDS011;4802;51.494;6.770;2023-04-03T06:27:06;3.60;;;0.93;;
9526;SDS011;4802;51.494;6.770;2023-04-03T06:29:45;0.73;;;0.73;;
9526;SDS011;4802;51.494;6.770;2023-04-03T06:32:18;2.90;;;1.30;;
9526;SDS011;4802;51.494;6.770;2023-04-03T06:34:47;1.17;;;0.90;;
9526;SDS011;4802;51.494;6.770;2023-04-03T06:37:17;8.07;;;1.20;;
9526;SDS011;4802;51.494;6.770;2023-04-03T06:39:46;1.83;;;1.73;;
9526;SDS011;4802;51.494;6.770;2023-04-03T06:42:17;0.80;;;0.80;;
9526;SDS011;4802;51.494;6.770;2023-04-03T06:44:47;1.20;;;1.00;;
9526;SDS011;4802;51.494;6.770;2023-04-03T06:47:17;2.60;;;1.30;;
9526;SDS011;4802;51.494;6.770;2023-04-03T06:49:46;1.80;;;0.80;;
9526;SDS011;4802;51.494;6.770;2023-04-03T06:52:16;0.77;;;0.77;;
9526;SDS011;4802;51.494;6.770;2023-04-03T06:54:46;1.83;;;1.73;;
9526;SDS011;4802;51.494;6.770;2023-04-03T06:57:19;1.93;;;1.10;;
9526;SDS011;4802;51.494;6.770;2023-04-03T06:59:48;4.03;;;1.30;;
9526;SDS011;4802;51.494;6.770;2023-04-03T07:02:20;3.67;;;1.23;;
9526;SDS011;4802;51.494;6.770;2023-04-03T07:04:49;2.73;;;1.10;;
9526;SDS011;4802;51.494;6.770;2023-04-03T07:07:19;2.70;;;1.40;;
9526;SDS011;4802;51.494;6.770;2023-04-03T07:09:50;1.17;;;1.03;;
9526;SDS011;4802;51.494;6.770;2023-04-03T07:12:22;0.87;;;0.80;;
9526;SDS011;4802;51.494;6.770;2023-04-03T07:14:53;1.80;;;0.87;;
9526;SDS011;4802;51.494;6.770;2023-04-03T07:17:26;1.67;;;1.10;;
9526;SDS011;4802;51.494;6.770;2023-04-03T07:19:55;4.83;;;1.93;;
9526;SDS011;4802;51.494;6.770;2023-04-03T07:22:27;1.10;;;1.07;;
9526;SDS011;4802;51.494;6.770;2023-04-03T07:24:57;1.37;;;1.27;;
9526;SDS011;4802;51.494;6.770;2023-04-03T07:27:28;1.50;;;0.80;;
9526;SDS011;4802;51.494;6.770;2023-04-03T07:29:58;0.70;;;0.43;;
9526;SDS011;4802;51.494;6.770;2023-04-03T07:32:28;3.60;;;1.37;;
9526;SDS011;4802;51.494;6.770;2023-04-03T07:34:58;0.63;;;0.63;;
9526;SDS011;4802;51.494;6.770;2023-04-03T07:37:30;1.17;;;0.80;;
9526;SDS011;4802;51.494;6.770;2023-04-03T07:39:59;0.90;;;0.90;;
9526;SDS011;4802;51.494;6.770;2023-04-03T07:42:32;0.70;;;0.63;;
9526;SDS011;4802;51.494;6.770;2023-04-03T07:45:03;0.90;;;0.90;;
9526;SDS011;4802;51.494;6.770;2023-04-03T07:47:33;3.37;;;1.20;;
9526;SDS011;4802;51.494;6.770;2023-04-03T07:50:02;3.90;;;1.00;;
9526;SDS011;4802;51.494;6.770;2023-04-03T07:52:32;1.67;;;0.93;;
9526;SDS011;4802;51.494;6.770;2023-04-03T07:55:04;1.97;;;1.20;;
9526;SDS011;4802;51.494;6.770;2023-04-03T07:57:36;0.53;;;0.40;;
9526;SDS011;4802;51.494;6.770;2023-04-03T08:00:06;0.90;;;0.70;;
9526;SDS011;4802;51.494;6.770;2023-04-03T08:02:36;4.83;;;1.03;;
9526;SDS011;4802;51.494;6.770;2023-04-03T08:05:06;4.57;;;1.40;;
9526;SDS011;4802;51.494;6.770;2023-04-03T08:07:36;0.80;;;0.80;;
9526;SDS011;4802;51.494;6.770;2023-04-03T08:10:06;0.57;;;0.57;;
9526;SDS011;4802;51.494;6.770;2023-04-03T08:12:39;0.80;;;0.77;;
9526;SDS011;4802;51.494;6.770;2023-04-03T08:15:10;1.90;;;1.40;;
9526;SDS011;4802;51.494;6.770;2023-04-03T08:17:41;1.57;;;0.90;;
9526;SDS011;4802;51.494;6.770;2023-04-03T08:20:11;2.90;;;0.63;;
9526;SDS011;4802;51.494;6.770;2023-04-03T08:22:40;0.70;;;0.70;;
9526;SDS011;4802;51.494;6.770;2023-04-03T08:25:09;0.70;;;0.70;;
9526;SDS011;4802;51.494;6.770;2023-04-03T08:27:41;1.67;;;0.80;;
9526;SDS011;4802;51.494;6.770;2023-04-03T08:30:11;5.00;;;1.43;;
9526;SDS011;4802;51.494;6.770;2023-04-03T08:32:40;2.20;;;0.93;;
9526;SDS011;4802;51.494;6.770;2023-04-03T08:35:10;0.87;;;0.60;;
9526;SDS011;4802;51.494;6.770;2023-04-03T08:37:40;4.03;;;0.77;;
9526;SDS011;4802;51.494;6.770;2023-04-03T08:40:12;2.10;;;0.93;;
9526;SDS011;4802;51.494;6.770;2023-04-03T08:42:50;0.50;;;0.40;;
9526;SDS011;4802;51.494;6.770;2023-04-03T08:45:21;0.53;;;0.53;;
9526;SDS011;4802;51.494;6.770;2023-04-03T08:47:52;0.40;;;0.40;;
9526;SDS011;4802;51.494;6.770;2023-04-03T08:50:26;0.50;;;0.50;;
9526;SDS011;4802;51.494;6.770;2023-04-03T08:52:58;0.67;;;0.67;;
9526;SDS011;4802;51.494;6.770;2023-04-03T08:55:28;3.77;;;0.70;;
9526;SDS011;4802;51.494;6.770;2023-04-03T08:58:01;1.17;;;0.50;;
9526;SDS011;4802;51.494;6.770;2023-04-03T09:00:32;0.60;;;0.40;;
9526;SDS011;4802;51.494;6.770;2023-04-03T09:03:04;0.57;;;0.57;;
9526;SDS011;4802;51.494;6.770;2023-04-03T09:05:39;0.60;;;0.43;;
9526;SDS011;4802;51.494;6.770;2023-04-03T09:08:12;1.57;;;1.30;;
9526;SDS011;4802;51.494;6.770;2023-04-03T09:10:43;0.60;;;0.60;;
9526;SDS011;4802;51.494;6.770;2023-04-03T09:13:17;0.40;;;0.40;;
9526;SDS011;4802;51.494;6.770;2023-04-03T09:15:50;1.07;;;0.47;;
9526;SDS011;4802;51.494;6.770;2023-04-03T09:18:21;0.67;;;0.63;;
9526;SDS011;4802;51.494;6.770;2023-04-03T09:20:54;0.57;;;0.57;;
9526;SDS011;4802;51.494;6.770;2023-04-03T09:23:26;0.63;;;0.63;;
9526;SDS011;4802;51.494;6.770;2023-04-03T09:25:58;0.70;;;0.63;;
9526;SDS011;4802;51.494;6.770;2023-04-03T09:28:32;0.97;;;0.97;;
9526;SDS011;4802;51.494;6.770;2023-04-03T09:31:16;1.13;;;0.73;;
9526;SDS011;4802;51.494;6.770;2023-04-03T09:33:47;1.23;;;1.03;;
9526;SDS011;4802;51.494;6.770;2023-04-03T09:36:37;4.10;;;1.07;;
9526;SDS011;4802;51.494;6.770;2023-04-03T09:39:08;1.80;;;1.53;;
9526;SDS011;4802;51.494;6.770;2023-04-03T09:41:39;1.43;;;0.83;;
9526;SDS011;4802;51.494;6.770;2023-04-03T09:44:21;1.27;;;0.60;;
9526;SDS011;4802;51.494;6.770;2023-04-03T09:46:51;0.43;;;0.43;;
9526;SDS011;4802;51.494;6.770;2023-04-03T09:49:20;11.40;;;1.37;;
9526;SDS011;4802;51.494;6.770;2023-04-03T09:51:50;0.83;;;0.83;;
9526;SDS011;4802;51.494;6.770;2023-04-03T09:54:24;0.93;;;0.77;;
9526;SDS011;4802;51.494;6.770;2023-04-03T09:56:57;0.70;;;0.70;;
9526;SDS011;4802;51.494;6.770;2023-04-03T09:59:31;5.93;;;1.07;;
9526;SDS011;4802;51.494;6.770;2023-04-03T10:02:15;1.43;;;0.80;;
9526;SDS011;4802;51.494;6.770;2023-04-03T10:04:51;4.23;;;0.90;;
9526;SDS011;4802;51.494;6.770;2023-04-03T10:07:37;0.57;;;0.57;;
9526;SDS011;4802;51.494;6.770;2023-04-03T10:10:19;0.93;;;0.93;;
9526;SDS011;4802;51.494;6.770;2023-04-03T10:13:05;0.60;;;0.60;;
9526;SDS011;4802;51.494;6.770;2023-04-03T10:15:50;0.77;;;0.73;;
9526;SDS011;4802;51.494;6.770;2023-04-03T10:18:26;0.73;;;0.73;;
9526;SDS011;4802;51.494;6.770;2023-04-03T10:20:59;12.80;;;1.00;;
9526;SDS011;4802;51.494;6.770;2023-04-03T10:23:41;0.80;;;0.80;;
9526;SDS011;4802;51.494;6.770;2023-04-03T10:26:17;0.50;;;0.50;;
9526;SDS011;4802;51.494;6.770;2023-04-03T10:28:52;1.43;;;1.43;;
9526;SDS011;4802;51.494;6.770;2023-04-03T10:31:31;0.60;;;0.60;;
9526;SDS011;4802;51.494;6.770;2023-04-03T10:34:04;1.07;;;0.97;;
9526;SDS011;4802;51.494;6.770;2023-04-03T10:36:36;0.60;;;0.60;;
9526;SDS011;4802;51.494;6.770;2023-04-03T10:39:13;0.77;;;0.63;;
9526;SDS011;4802;51.494;6.770;2023-04-03T10:41:47;12.60;;;1.50;;
9526;SDS011;4802;51.494;6.770;2023-04-03T10:44:32;0.70;;;0.70;;
9526;SDS011;4802;51.494;6.770;2023-04-03T10:47:12;0.90;;;0.90;;
9526;SDS011;4802;51.494;6.770;2023-04-03T10:49:47;1.00;;;1.00;;
9526;SDS011;4802;51.494;6.770;2023-04-03T10:52:27;0.90;;;0.67;;
9526;SDS011;4802;51.494;6.770;2023-04-03T10:55:13;1.90;;;0.93;;
9526;SDS011;4802;51.494;6.770;2023-04-03T10:57:45;20.27;;;1.70;;
9526;SDS011;4802;51.494;6.770;2023-04-03T11:00:19;0.90;;;0.90;;
9526;SDS011;4802;51.494;6.770;2023-04-03T11:02:53;0.50;;;0.50;;
9526;SDS011;4802;51.494;6.770;2023-04-03T11:05:26;0.90;;;0.90;;
9526;SDS011;4802;51.494;6.770;2023-04-03T11:07:57;0.77;;;0.77;;
9526;SDS011;4802;51.494;6.770;2023-04-03T11:10:35;0.67;;;0.67;;
9526;SDS011;4802;51.494;6.770;2023-04-03T11:13:07;1.07;;;0.97;;
9526;SDS011;4802;51.494;6.770;2023-04-03T11:15:37;1.23;;;1.17;;
9526;SDS011;4802;51.494;6.770;2023-04-03T11:18:10;1.13;;;1.13;;
9526;SDS011;4802;51.494;6.770;2023-04-03T11:20:47;0.60;;;0.60;;
9526;SDS011;4802;51.494;6.770;2023-04-03T11:23:19;0.50;;;0.50;;
9526;SDS011;4802;51.494;6.770;2023-04-03T11:25:53;0.70;;;0.70;;
9526;SDS011;4802;51.494;6.770;2023-04-03T11:28:24;0.60;;;0.60;;
9526;SDS011;4802;51.494;6.770;2023-04-03T11:30:59;5.57;;;0.83;;
9526;SDS011;4802;51.494;6.770;2023-04-03T11:33:36;0.77;;;0.77;;
9526;SDS011;4802;51.494;6.770;2023-04-03T11:36:07;0.97;;;0.87;;
9526;SDS011;4802;51.494;6.770;2023-04-03T11:38:57;2.07;;;0.97;;
9526;SDS011;4802;51.494;6.770;2023-04-03T11:41:31;1.20;;;1.10;;
9526;SDS011;4802;51.494;6.770;2023-04-03T11:44:02;0.70;;;0.70;;
9526;SDS011;4802;51.494;6.770;2023-04-03T11:46:52;0.60;;;0.60;;
9526;SDS011;4802;51.494;6.770;2023-04-03T11:52:12;0.90;;;0.90;;
9526;SDS011;4802;51.494;6.770;2023-04-03T11:54:48;0.57;;;0.57;;
9526;SDS011;4802;51.494;6.770;2023-04-03T12:02:57;0.80;;;0.80;;
9526;SDS011;4802;51.494;6.770;2023-04-03T12:05:32;0.70;;;0.70;;
9526;SDS011;4802;51.494;6.770;2023-04-03T12:16:42;0.67;;;0.67;;
9526;SDS011;4802;51.494;6.770;2023-04-03T12:22:15;0.80;;;0.80;;
9526;SDS011;4802;51.494;6.770;2023-04-03T12:24:48;1.33;;;0.80;;
9526;SDS011;4802;51.494;6.770;2023-04-03T12:27:28;0.50;;;0.50;;
9526;SDS011;4802;51.494;6.770;2023-04-03T12:30:01;0.80;;;0.80;;
9526;SDS011;4802;51.494;6.770;2023-04-03T12:32:40;2.40;;;1.00;;
9526;SDS011;4802;51.494;6.770;2023-04-03T12:35:20;1.27;;;1.27;;
9526;SDS011;4802;51.494;6.770;2023-04-03T12:38:00;1.13;;;0.90;;
9526;SDS011;4802;51.494;6.770;2023-04-03T12:40:42;0.60;;;0.60;;
9526;SDS011;4802;51.494;6.770;2023-04-03T12:43:18;0.97;;;0.97;;
9526;SDS011;4802;51.494;6.770;2023-04-03T12:45:50;1.20;;;1.20;;
9526;SDS011;4802;51.494;6.770;2023-04-03T12:48:26;0.70;;;0.70;;
9526;SDS011;4802;51.494;6.770;2023-04-03T12:50:56;0.77;;;0.63;;
9526;SDS011;4802;51.494;6.770;2023-04-03T12:53:28;3.20;;;1.97;;
9526;SDS011;4802;51.494;6.770;2023-04-03T12:58:45;2.47;;;2.27;;
9526;SDS011;4802;51.494;6.770;2023-04-03T13:01:19;1.20;;;1.13;;
9526;SDS011;4802;51.494;6.770;2023-04-03T13:03:54;6.83;;;0.90;;
9526;SDS011;4802;51.494;6.770;2023-04-03T13:06:24;1.63;;;1.07;;
9526;SDS011;4802;51.494;6.770;2023-04-03T13:08:57;0.57;;;0.57;;
9526;SDS011;4802;51.494;6.770;2023-04-03T13:11:28;0.70;;;0.70;;
9526;SDS011;4802;51.494;6.770;2023-04-03T13:14:01;8.63;;;1.73;;
9526;SDS011;4802;51.494;6.770;2023-04-03T13:16:33;0.80;;;0.80;;
9526;SDS011;4802;51.494;6.770;2023-04-03T13:19:14;2.33;;;0.60;;
9526;SDS011;4802;51.494;6.770;2023-04-03T13:21:55;1.47;;;1.37;;
9526;SDS011;4802;51.494;6.770;2023-04-03T13:24:27;0.87;;;0.87;;
9526;SDS011;4802;51.494;6.770;2023-04-03T13:26:57;0.90;;;0.90;;
9526;SDS011;4802;51.494;6.770;2023-04-03T13:29:28;1.20;;;1.07;;
9526;SDS011;4802;51.494;6.770;2023-04-03T13:31:59;1.03;;;1.03;;
9526;SDS011;4802;51.494;6.770;2023-04-03T13:34:35;0.87;;;0.87;;
9526;SDS011;4802;51.494;6.770;2023-04-03T13:37:04;0.93;;;0.93;;
9526;SDS011;4802;51.494;6.770;2023-04-03T13:39:35;4.70;;;1.57;;
9526;SDS011;4802;51.494;6.770;2023-04-03T13:42:15;0.90;;;0.90;;
9526;SDS011;4802;51.494;6.770;2023-04-03T13:44:44;0.90;;;0.70;;
9526;SDS011;4802;51.494;6.770;2023-04-03T13:47:17;0.50;;;0.50;;
9526;SDS011;4802;51.494;6.770;2023-04-03T13:50:01;0.73;;;0.73;;
9526;SDS011;4802;51.494;6.770;2023-04-03T13:52:32;0.50;;;0.50;;
9526;SDS011;4802;51.494;6.770;2023-04-03T13:55:03;8.60;;;1.07;;
9526;SDS011;4802;51.494;6.770;2023-04-03T13:57:51;0.73;;;0.67;;
9526;SDS011;4802;51.494;6.770;2023-04-03T14:00:26;0.90;;;0.90;;
9526;SDS011;4802;51.494;6.770;2023-04-03T14:02:57;1.13;;;0.60;;
9526;SDS011;4802;51.494;6.770;2023-04-03T14:05:30;1.90;;;0.93;;
9526;SDS011;4802;51.494;6.770;2023-04-03T14:07:59;0.53;;;0.53;;
9526;SDS011;4802;51.494;6.770;2023-04-03T14:10:29;0.73;;;0.73;;
9526;SDS011;4802;51.494;6.770;2023-04-03T14:12:59;1.10;;;1.10;;
9526;SDS011;4802;51.494;6.770;2023-04-03T14:15:30;0.63;;;0.63;;
9526;SDS011;4802;51.494;6.770;2023-04-03T14:18:00;2.10;;;0.60;;
9526;SDS011;4802;51.494;6.770;2023-04-03T14:20:33;2.30;;;1.00;;
9526;SDS011;4802;51.494;6.770;2023-04-03T14:23:03;0.70;;;0.70;;
9526;SDS011;4802;51.494;6.770;2023-04-03T14:25:33;1.60;;;0.83;;
9526;SDS011;4802;51.494;6.770;2023-04-03T14:28:06;2.73;;;1.37;;
9526;SDS011;4802;51.494;6.770;2023-04-03T14:30:41;4.57;;;1.70;;
9526;SDS011;4802;51.494;6.770;2023-04-03T14:33:13;6.43;;;1.73;;
9526;SDS011;4802;51.494;6.770;2023-04-03T14:35:45;0.80;;;0.80;;
9526;SDS011;4802;51.494;6.770;2023-04-03T14:38:20;0.80;;;0.80;;
9526;SDS011;4802;51.494;6.770;2023-04-03T14:40:52;0.60;;;0.60;;
9526;SDS011;4802;51.494;6.770;2023-04-03T14:43:31;0.60;;;0.60;;
9526;SDS011;4802;51.494;6.770;2023-04-03T14:46:03;0.60;;;0.60;;
9526;SDS011;4802;51.494;6.770;2023-04-03T14:48:53;1.23;;;1.17;;
9526;SDS011;4802;51.494;6.770;2023-04-03T14:51:24;0.97;;;0.87;;
9526;SDS011;4802;51.494;6.770;2023-04-03T14:53:54;1.60;;;1.50;;
9526;SDS011;4802;51.494;6.770;2023-04-03T14:56:24;0.60;;;0.60;;
9526;SDS011;4802;51.494;6.770;2023-04-03T14:58:55;0.87;;;0.87;;
9526;SDS011;4802;51.494;6.770;2023-04-03T15:01:27;0.73;;;0.70;;
9526;SDS011;4802;51.494;6.770;2023-04-03T15:03:58;3.27;;;1.30;;
9526;SDS011;4802;51.494;6.770;2023-04-03T15:06:29;2.80;;;1.07;;
9526;SDS011;4802;51.494;6.770;2023-04-03T15:09:09;1.13;;;1.00;;
9526;SDS011;4802;51.494;6.770;2023-04-03T15:11:42;1.37;;;1.27;;
9526;SDS011;4802;51.494;6.770;2023-04-03T15:14:14;0.70;;;0.70;;
9526;SDS011;4802;51.494;6.770;2023-04-03T15:17:02;2.10;;;1.23;;
9526;SDS011;4802;51.494;6.770;2023-04-03T15:19:33;2.50;;;1.70;;
9526;SDS011;4802;51.494;6.770;2023-04-03T15:22:08;0.83;;;0.83;;
9526;SDS011;4802;51.494;6.770;2023-04-03T15:24:37;1.70;;;1.07;;
9526;SDS011;4802;51.494;6.770;2023-04-03T15:27:06;3.07;;;0.97;;
9526;SDS011;4802;51.494;6.770;2023-04-03T15:29:36;4.93;;;1.03;;
9526;SDS011;4802;51.494;6.770;2023-04-03T15:32:08;1.53;;;1.53;;
9526;SDS011;4802;51.494;6.770;2023-04-03T15:34:39;0.83;;;0.83;;
9526;SDS011;4802;51.494;6.770;2023-04-03T15:37:13;1.17;;;0.93;;
9526;SDS011;4802;51.494;6.770;2023-04-03T15:39:47;7.93;;;1.67;;
9526;SDS011;4802;51.494;6.770;2023-04-03T15:42:20;3.93;;;1.23;;
9526;SDS011;4802;51.494;6.770;2023-04-03T15:44:50;6.67;;;0.90;;
9526;SDS011;4802;51.494;6.770;2023-04-03T15:47:20;1.20;;;1.10;;
9526;SDS011;4802;51.494;6.770;2023-04-03T15:49:52;0.73;;;0.67;;
9526;SDS011;4802;51.494;6.770;2023-04-03T15:52:27;1.40;;;1.30;;
9526;SDS011;4802;51.494;6.770;2023-04-03T15:54:58;4.50;;;2.23;;
9526;SDS011;4802;51.494;6.770;2023-04-03T15:57:27;0.70;;;0.70;;
9526;SDS011;4802;51.494;6.770;2023-04-03T15:59:57;1.43;;;1.10;;
9526;SDS011;4802;51.494;6.770;2023-04-03T16:02:27;0.77;;;0.77;;
9526;SDS011;4802;51.494;6.770;2023-04-03T16:04:58;1.00;;;1.00;;
9526;SDS011;4802;51.494;6.770;2023-04-03T16:07:30;2.90;;;0.90;;
9526;SDS011;4802;51.494;6.770;2023-04-03T16:10:02;0.93;;;0.93;;
9526;SDS011;4802;51.494;6.770;2023-04-03T16:12:33;1.73;;;1.63;;
9526;SDS011;4802;51.494;6.770;2023-04-03T16:15:02;2.10;;;1.13;;
9526;SDS011;4802;51.494;6.770;2023-04-03T16:17:35;0.90;;;0.90;;
9526;SDS011;4802;51.494;6.770;2023-04-03T16:20:06;1.13;;;1.10;;